createdAt,value
2023-03-22T00:01:15.363Z,43.50
2023-03-22T00:03:43.966Z,43.30
2023-03-22T00:06:13.571Z,43.50
2023-03-22T00:08:41.603Z,43.90
2023-03-22T00:11:09.820Z,43.80
2023-03-22T00:13:38.169Z,43.30
2023-03-22T00:16:06.555Z,42.60
2023-03-22T00:18:34.600Z,42.50
2023-03-22T00:21:02.834Z,42.50
2023-03-22T00:23:32.465Z,42.60
2023-03-22T00:26:00.694Z,42.40
2023-03-22T00:28:28.767Z,42.00
2023-03-22T00:30:57.640Z,41.80
2023-03-22T00:33:28.897Z,41.60
2023-03-22T00:35:58.988Z,41.80
2023-03-22T00:38:42.366Z,41.60
2023-03-22T00:41:13.981Z,40.90
2023-03-22T00:43:42.171Z,41.20
2023-03-22T00:46:10.764Z,41.10
2023-03-22T00:48:38.769Z,40.80
2023-03-22T00:51:07.606Z,40.80
2023-03-22T00:53:36.568Z,40.80
2023-03-22T00:56:05.016Z,41.00
2023-03-22T00:58:43.793Z,40.90
2023-03-22T01:01:14.529Z,40.80
2023-03-22T01:03:43.201Z,40.30
2023-03-22T01:06:15.424Z,40.80
2023-03-22T01:08:43.731Z,40.60
2023-03-22T01:11:11.679Z,40.30
2023-03-22T01:13:41.638Z,40.60
2023-03-22T01:16:11.504Z,40.90
2023-03-22T01:18:40.748Z,40.50
2023-03-22T01:21:09.910Z,40.50
2023-03-22T01:23:38.244Z,40.30
2023-03-22T01:26:07.869Z,40.60
2023-03-22T01:28:35.980Z,39.70
2023-03-22T01:31:04.689Z,39.70
2023-03-22T01:33:34.418Z,38.90
2023-03-22T01:36:02.948Z,38.80
2023-03-22T01:38:31.384Z,38.30
2023-03-22T01:41:01.554Z,37.80
2023-03-22T01:43:32.739Z,38.50
2023-03-22T01:46:02.150Z,38.50
2023-03-22T01:48:35.111Z,38.80
2023-03-22T01:51:09.315Z,38.80
2023-03-22T01:53:55.754Z,39.80
2023-03-22T01:56:24.860Z,38.50
2023-03-22T01:58:54.818Z,38.90
2023-03-22T02:01:28.420Z,38.90
2023-03-22T02:03:59.928Z,38.50
2023-03-22T02:06:29.948Z,38.60
2023-03-22T02:09:05.378Z,38.70
2023-03-22T02:11:34.792Z,38.80
2023-03-22T02:14:18.974Z,38.70
2023-03-22T02:17:20.431Z,40.00
2023-03-22T02:20:15.447Z,40.00
2023-03-22T02:23:05.815Z,39.80
2023-03-22T02:26:01.385Z,39.80
2023-03-22T02:28:32.656Z,39.80
2023-03-22T02:31:12.622Z,39.70
2023-03-22T02:33:50.231Z,39.70
2023-03-22T02:36:31.006Z,39.10
2023-03-22T02:39:08.826Z,39.30
2023-03-22T02:41:43.967Z,39.50
2023-03-22T02:44:17.263Z,40.00
2023-03-22T02:46:49.802Z,39.80
2023-03-22T02:49:20.728Z,40.90
2023-03-22T02:51:51.485Z,41.30
2023-03-22T02:54:22.533Z,41.20
2023-03-22T02:56:54.726Z,41.80
2023-03-22T02:59:24.283Z,42.10
2023-03-22T03:01:53.583Z,42.00
2023-03-22T03:04:22.988Z,41.80
2023-03-22T03:06:53.247Z,42.30
2023-03-22T03:09:22.790Z,42.60
2023-03-22T03:11:52.396Z,42.50
2023-03-22T03:14:21.553Z,42.40
2023-03-22T03:17:06.825Z,43.10
2023-03-22T03:19:49.256Z,43.70
2023-03-22T03:22:30.723Z,42.60
2023-03-22T03:25:04.793Z,42.40
2023-03-22T03:27:44.185Z,43.50
2023-03-22T03:30:22.267Z,43.50
2023-03-22T03:32:53.590Z,44.10
2023-03-22T03:35:23.340Z,43.50
2023-03-22T03:37:53.628Z,43.30
2023-03-22T03:40:24.767Z,43.40
2023-03-22T03:42:54.078Z,42.80
2023-03-22T03:45:22.451Z,42.50
2023-03-22T03:47:55.581Z,42.00
2023-03-22T03:50:24.061Z,42.10
2023-03-22T03:52:52.381Z,41.40
2023-03-22T03:55:20.511Z,42.10
2023-03-22T03:57:49.828Z,42.60
2023-03-22T04:00:18.307Z,42.40
2023-03-22T04:03:18.791Z,42.20
2023-03-22T04:06:10.430Z,42.10
2023-03-22T04:08:41.708Z,41.70
2023-03-22T04:11:10.204Z,40.80
2023-03-22T04:13:40.911Z,40.70
2023-03-22T04:16:15.461Z,40.50
2023-03-22T04:18:44.019Z,39.90
2023-03-22T04:21:13.279Z,40.40
2023-03-22T04:23:48.632Z,40.40
2023-03-22T04:26:18.021Z,39.70
2023-03-22T04:28:58.559Z,40.10
2023-03-22T04:31:27.244Z,40.00
2023-03-22T04:34:05.636Z,41.00
2023-03-22T04:36:52.348Z,41.10
2023-03-22T04:39:31.354Z,41.30
2023-03-22T04:42:14.881Z,41.50
2023-03-22T04:44:44.892Z,41.50
2023-03-22T04:47:13.178Z,42.70
2023-03-22T04:49:41.814Z,42.80
2023-03-22T04:52:10.242Z,42.60
2023-03-22T04:54:39.077Z,42.60
2023-03-22T04:57:09.060Z,42.90
2023-03-22T04:59:41.458Z,42.30
2023-03-22T05:02:12.383Z,42.80
2023-03-22T05:04:44.124Z,43.10
2023-03-22T05:07:21.735Z,42.90
2023-03-22T05:09:54.707Z,43.20
2023-03-22T05:12:23.140Z,43.00
2023-03-22T05:15:17.364Z,42.80
2023-03-22T05:17:47.304Z,42.00
2023-03-22T05:20:16.124Z,40.70
2023-03-22T05:22:50.590Z,40.40
2023-03-22T05:25:20.128Z,40.40
2023-03-22T05:27:50.238Z,40.60
2023-03-22T05:30:38.099Z,40.40
2023-03-22T05:33:16.997Z,41.30
2023-03-22T05:35:47.223Z,40.90
2023-03-22T05:38:16.596Z,40.70
2023-03-22T05:40:49.860Z,40.40
2023-03-22T05:43:17.996Z,40.50
2023-03-22T05:45:50.970Z,40.60
2023-03-22T05:48:49.581Z,40.30
2023-03-22T05:51:19.158Z,41.30
2023-03-22T05:53:51.747Z,42.00
2023-03-22T05:56:24.227Z,42.00
2023-03-22T05:58:55.793Z,42.20
2023-03-22T06:01:25.504Z,43.70
2023-03-22T06:04:20.972Z,45.00
2023-03-22T06:06:58.685Z,45.40
2023-03-22T06:09:58.976Z,46.40
2023-03-22T06:12:30.431Z,47.20
2023-03-22T06:15:08.874Z,47.10
2023-03-22T06:17:36.889Z,47.20
2023-03-22T06:20:11.974Z,47.30
2023-03-22T06:22:43.396Z,47.70
2023-03-22T06:25:11.718Z,46.60
2023-03-22T06:27:46.103Z,46.40
2023-03-22T06:30:14.689Z,46.00
2023-03-22T06:33:06.204Z,45.20
2023-03-22T06:35:39.717Z,45.40
2023-03-22T06:38:10.799Z,45.40
2023-03-22T06:40:40.230Z,44.90
2023-03-22T06:43:08.754Z,43.70
2023-03-22T06:45:39.772Z,43.80
2023-03-22T06:48:08.604Z,43.30
2023-03-22T06:50:51.336Z,43.70
2023-03-22T06:53:25.680Z,44.40
2023-03-22T06:55:55.383Z,43.80
2023-03-22T06:58:25.780Z,43.40
2023-03-22T07:00:56.208Z,43.70
2023-03-22T07:03:26.701Z,43.70
2023-03-22T07:06:02.913Z,45.60
2023-03-22T07:08:33.052Z,43.90
2023-03-22T07:11:01.118Z,44.60
2023-03-22T07:13:30.225Z,44.50
2023-03-22T07:16:03.992Z,44.60
2023-03-22T07:18:53.540Z,45.00
2023-03-22T07:21:23.018Z,45.20
2023-03-22T07:23:58.305Z,45.30
2023-03-22T07:26:30.835Z,46.50
2023-03-22T07:29:00.346Z,45.60
2023-03-22T07:31:35.601Z,42.70
2023-03-22T07:34:11.091Z,43.10
2023-03-22T07:36:58.019Z,42.80
2023-03-22T07:39:28.907Z,42.70
2023-03-22T07:41:57.250Z,42.80
2023-03-22T07:44:25.426Z,41.80
2023-03-22T07:47:13.331Z,40.40
2023-03-22T07:49:50.096Z,41.80
2023-03-22T07:52:27.472Z,41.60
2023-03-22T07:54:55.547Z,41.70
2023-03-22T07:57:24.603Z,41.00
2023-03-22T07:59:59.425Z,42.00
2023-03-22T08:02:45.706Z,42.50
2023-03-22T08:05:26.063Z,39.70
2023-03-22T08:08:02.166Z,36.80
2023-03-22T08:10:31.887Z,36.90
2023-03-22T08:13:00.174Z,37.00
2023-03-22T08:15:28.397Z,35.50
2023-03-22T08:17:58.923Z,36.30
2023-03-22T08:20:34.171Z,36.80
2023-03-22T08:23:14.396Z,37.20
2023-03-22T08:25:58.501Z,36.50
2023-03-22T08:28:26.450Z,34.30
2023-03-22T08:30:55.204Z,34.80
2023-03-22T08:33:25.382Z,33.00
2023-03-22T08:35:54.018Z,33.10
2023-03-22T08:38:23.785Z,32.10
2023-03-22T08:40:54.445Z,31.80
2023-03-22T08:43:26.578Z,31.90
2023-03-22T08:45:54.827Z,31.60
2023-03-22T08:48:23.157Z,30.50
2023-03-22T08:51:06.167Z,30.80
2023-03-22T08:53:53.093Z,32.10
2023-03-22T08:56:39.569Z,31.60
2023-03-22T08:59:19.349Z,30.70
2023-03-22T09:01:57.378Z,30.00
2023-03-22T09:04:26.300Z,31.20
2023-03-22T09:06:54.726Z,29.70
2023-03-22T09:09:24.148Z,29.90
2023-03-22T09:11:54.445Z,29.50
2023-03-22T09:14:22.387Z,29.20
2023-03-22T09:16:51.710Z,29.30
2023-03-22T09:19:20.364Z,30.10
2023-03-22T09:21:48.460Z,29.90
2023-03-22T09:24:21.595Z,29.30
2023-03-22T09:26:55.723Z,29.20
2023-03-22T09:29:24.525Z,30.10
2023-03-22T09:31:53.509Z,30.00
2023-03-22T09:34:27.051Z,30.20
2023-03-22T09:36:58.683Z,29.50
2023-03-22T09:39:31.092Z,30.90
2023-03-22T09:42:05.049Z,30.10
2023-03-22T09:44:35.548Z,29.70
2023-03-22T09:47:05.333Z,29.00
2023-03-22T09:49:52.248Z,29.60
2023-03-22T09:52:21.612Z,29.20
2023-03-22T09:54:52.606Z,29.40
2023-03-22T09:57:27.027Z,30.60
2023-03-22T09:59:58.602Z,29.40
2023-03-22T10:02:40.091Z,29.00
2023-03-22T10:05:14.357Z,28.80
2023-03-22T10:07:49.357Z,29.10
2023-03-22T10:10:18.860Z,28.60
2023-03-22T10:12:54.760Z,28.60
2023-03-22T10:15:27.591Z,29.00
2023-03-22T10:17:57.183Z,27.60
2023-03-22T10:20:45.843Z,28.40
2023-03-22T10:23:36.229Z,28.80
2023-03-22T10:26:25.695Z,27.70
2023-03-22T10:29:20.083Z,27.60
2023-03-22T10:32:13.452Z,27.80
2023-03-22T10:35:01.870Z,27.50
2023-03-22T10:37:51.071Z,26.70
2023-03-22T10:40:40.832Z,26.30
2023-03-22T10:43:32.134Z,26.40
2023-03-22T10:46:22.525Z,27.90
2023-03-22T10:49:23.472Z,28.00
2023-03-22T10:52:19.581Z,26.60
2023-03-22T10:55:10.540Z,25.60
2023-03-22T10:58:01.412Z,25.50
2023-03-22T11:00:50.834Z,26.10
2023-03-22T11:03:41.849Z,28.10
2023-03-22T11:06:32.893Z,26.10
2023-03-22T11:09:22.322Z,28.90
2023-03-22T11:12:12.955Z,26.60
2023-03-22T11:15:03.253Z,26.30
2023-03-22T11:17:52.141Z,26.10
2023-03-22T11:20:43.313Z,26.60
2023-03-22T11:23:33.195Z,26.10
2023-03-22T11:26:27.237Z,25.30
2023-03-22T11:29:18.011Z,25.60
2023-03-22T11:32:19.683Z,25.80
2023-03-22T11:35:12.979Z,25.40
2023-03-22T11:38:02.918Z,25.10
2023-03-22T11:40:55.041Z,23.80
2023-03-22T11:43:48.366Z,24.30
2023-03-22T11:46:37.487Z,23.70
2023-03-22T11:49:28.202Z,23.90
2023-03-22T11:52:18.539Z,23.80
2023-03-22T11:55:11.288Z,22.90
2023-03-22T11:57:59.602Z,23.90
2023-03-22T12:00:52.347Z,23.60
2023-03-22T12:03:43.071Z,24.10
2023-03-22T12:06:34.391Z,23.30
2023-03-22T12:09:25.667Z,22.40
2023-03-22T12:12:17.832Z,22.50
2023-03-22T12:15:07.404Z,23.20
2023-03-22T12:17:57.515Z,22.70
2023-03-22T12:20:50.302Z,22.00
2023-03-22T12:23:38.960Z,22.00
2023-03-22T12:26:28.803Z,22.60
2023-03-22T12:29:19.854Z,22.70
2023-03-22T12:32:12.408Z,21.80
2023-03-22T12:35:18.055Z,21.80
2023-03-22T12:38:11.816Z,23.20
2023-03-22T12:41:02.756Z,23.50
2023-03-22T12:43:55.549Z,23.30
2023-03-22T12:46:47.861Z,22.70
2023-03-22T12:49:38.010Z,23.00
2023-03-22T12:52:34.727Z,21.80
2023-03-22T12:55:30.891Z,21.10
2023-03-22T12:58:20.792Z,21.90
2023-03-22T13:01:15.318Z,22.10
2023-03-22T13:04:18.892Z,22.30
2023-03-22T13:07:15.305Z,22.20
2023-03-22T13:10:29.899Z,22.90
2023-03-22T13:13:32.849Z,21.80
2023-03-22T13:16:24.532Z,22.40
2023-03-22T13:19:28.774Z,21.40
2023-03-22T13:22:21.045Z,21.40
2023-03-22T13:25:14.753Z,22.50
2023-03-22T13:28:04.074Z,22.80
2023-03-22T13:30:53.601Z,22.70
2023-03-22T13:33:42.021Z,22.00
2023-03-22T13:36:32.009Z,23.10
2023-03-22T13:39:25.483Z,22.70
2023-03-22T13:42:19.558Z,23.40
2023-03-22T13:45:09.897Z,24.10
2023-03-22T13:48:06.254Z,22.70
2023-03-22T13:50:55.120Z,22.50
2023-03-22T13:53:47.146Z,22.70
2023-03-22T13:56:52.172Z,23.70
2023-03-22T14:00:08.576Z,23.20
2023-03-22T14:03:01.891Z,22.60
2023-03-22T14:05:56.674Z,22.80
2023-03-22T14:08:47.263Z,22.60
2023-03-22T14:11:39.970Z,21.80
2023-03-22T14:14:32.134Z,22.70
2023-03-22T14:17:27.753Z,21.50
2023-03-22T14:20:19.150Z,21.80
